Terminal Aerodrome Forecast
Issued by NWS Cleveland, OH

Home | Current Version | Previous Version | Text Only | Print | Product List | Glossary Off
Versions: 1 2 3 4 5 6 7 8 9 10 11 12 13 14 15 16 17 18 19 20 21

000
FTUS41 KCLE 251100 AAA
TAFYNG
TAF AMD
KYNG 251104Z 2511/2606 12005KT P6SM FEW025 SCT250
     FM251500 16006KT P6SM SCT035
     FM252300 13004KT P6SM FEW035 SCT250=

USA.gov is the U.S. government's official web portal to all federal, state and local government web resources and services.